KLPC/LPC METAR and TAF weather

Enter ICAO airport designator
Station Type Date Time Source
KLPC METAR 2021/05/15 23:56 UTC NOAA

KLPC 152356Z AUTO 27010KT 10SM 14/08 A2994 RMK AO2 SLP141 T01390083 10161 20128 58009 $


Station Type Date Time Source
KLPC Decoded METAR 2021/05/15 23:56 UTC NOAA

Lompoc, Lompoc Airport, CA, United States (KLPC) 34-40N 120-28W
May 15, 2021 - 07:56 PM EDT / 2021.05.15 2356 UTC
Wind: from the W (270 degrees) at 12 MPH (10 KT):0
Visibility: 10 mile(s):0
Temperature: 57.0 F (13.9 C)
Dew Point: 46.9 F (8.3 C)
Relative Humidity: 68%
Pressure (altimeter): 29.94 in. Hg (1013 hPa)
Pressure tendency: 0.03 inches (0.9 hPa) lower than three hours ago
ob: KLPC 152356Z AUTO 27010KT 10SM 14/08 A2994 RMK AO2 SLP141 T01390083 10161 20128 58009
cycle: 0

Station Type Date Time Source
KLPC TAF UTC NOAA

Error!

Example: see airport list